Time;durP1;ratioP1;P1;durP2;ratioP2;P2;SDS_P1;SDS_P2;PMS_P1;PMS_P2;Temp;Humidity;BMP_temperature;BMP_pressure;BME280_temperature;BME280_humidity;BME280_pressure;Samples;Min_cycle;Max_cycle;Signal;HPM_P1;HPM_P2
2022/07/21 00:02:07;;;;;;;10.35;8.13;;;22.50;99.90;;;;;;5034157;28;20678;-43
2022/07/21 00:04:33;;;;;;;9.98;7.82;;;22.60;99.90;;;;;;5033071;28;20218;-49
2022/07/21 00:06:58;;;;;;;9.98;8.07;;;22.50;99.90;;;;;;5034762;28;20353;-50
2022/07/21 00:09:24;;;;;;;9.85;8.05;;;22.40;99.90;;;;;;5034491;28;20217;-46
2022/07/21 00:11:50;;;;;;;8.95;7.10;;;22.20;99.90;;;;;;5034473;28;20167;-45
2022/07/21 00:14:15;;;;;;;9.00;6.85;;;22.20;99.90;;;;;;5034587;28;20167;-51
2022/07/21 00:16:42;;;;;;;9.43;6.80;;;22.10;99.90;;;;;;5034298;28;20241;-51
2022/07/21 00:19:08;;;;;;;9.38;6.82;;;22.10;99.90;;;;;;5034253;28;20172;-51
2022/07/21 00:21:34;;;;;;;7.95;6.88;;;22.10;99.90;;;;;;5034279;28;20168;-50
2022/07/21 00:24:00;;;;;;;8.88;6.88;;;22.00;99.90;;;;;;5034478;28;20217;-48
2022/07/21 00:26:26;;;;;;;8.68;6.25;;;22.00;99.90;;;;;;5034444;28;20624;-51
2022/07/21 00:28:51;;;;;;;7.85;5.97;;;21.90;99.90;;;;;;5034264;28;20171;-49
2022/07/21 00:31:17;;;;;;;10.90;6.10;;;21.90;99.90;;;;;;5034080;28;20189;-52
2022/07/21 00:33:42;;;;;;;6.78;6.07;;;21.90;99.90;;;;;;5034071;28;20221;-52
2022/07/21 00:36:08;;;;;;;7.68;6.57;;;21.90;99.90;;;;;;5034011;28;20171;-49
2022/07/21 00:38:34;;;;;;;7.38;6.20;;;21.90;99.90;;;;;;5033975;28;20163;-43
2022/07/21 00:41:00;;;;;;;6.82;5.50;;;21.90;99.90;;;;;;5033322;28;20167;-46
2022/07/21 00:43:26;;;;;;;6.68;6.05;;;21.90;99.90;;;;;;5033470;28;20170;-52
2022/07/21 00:45:55;;;;;;;6.25;5.45;;;22.00;99.90;;;;;;5033829;28;20262;-51
2022/07/21 00:48:21;;;;;;;7.22;5.60;;;22.00;99.90;;;;;;5033736;28;20557;-50
2022/07/21 00:50:47;;;;;;;8.85;5.75;;;22.10;99.90;;;;;;5033741;28;20230;-52
2022/07/21 00:53:12;;;;;;;6.72;5.65;;;22.20;99.90;;;;;;5033752;28;20171;-48
2022/07/21 00:55:42;;;;;;;7.45;5.45;;;22.00;99.90;;;;;;5033694;28;20168;-51
2022/07/21 00:58:08;;;;;;;7.60;6.50;;;21.90;99.90;;;;;;5033645;28;20167;-50
2022/07/21 01:00:34;;;;;;;6.07;5.50;;;22.10;99.90;;;;;;5033857;28;20164;-51
2022/07/21 01:02:59;;;;;;;6.90;5.55;;;21.90;99.90;;;;;;5033886;28;20171;-50
2022/07/21 01:05:25;;;;;;;8.48;5.32;;;21.90;99.90;;;;;;5033692;28;20215;-51
2022/07/21 01:07:53;;;;;;;6.25;5.65;;;21.80;99.90;;;;;;5033300;28;20219;-50
2022/07/21 01:10:21;;;;;;;6.10;5.45;;;21.90;99.90;;;;;;5033553;28;20175;-51
2022/07/21 01:12:47;;;;;;;7.72;5.85;;;22.10;99.90;;;;;;5033542;28;20251;-48
2022/07/21 01:15:15;;;;;;;6.60;5.65;;;22.10;99.90;;;;;;5033249;28;20242;-51
2022/07/21 01:17:41;;;;;;;6.85;6.25;;;22.10;99.90;;;;;;5033172;28;20167;-46
2022/07/21 01:20:10;;;;;;;8.73;6.82;;;22.10;99.90;;;;;;5033488;28;20527;-46
2022/07/21 01:22:38;;;;;;;8.88;7.18;;;22.10;99.90;;;;;;5033019;28;20202;-48
2022/07/21 01:25:04;;;;;;;7.45;6.70;;;21.90;99.90;;;;;;5032969;28;20206;-45
2022/07/21 01:27:30;;;;;;;11.15;7.40;;;22.00;99.90;;;;;;5033450;28;20652;-43
2022/07/21 01:29:57;;;;;;;9.98;7.05;;;21.90;99.90;;;;;;5033374;28;20168;-43
2022/07/21 01:32:23;;;;;;;7.55;6.55;;;21.80;99.90;;;;;;5033186;28;20171;-43
2022/07/21 01:34:49;;;;;;;6.55;5.90;;;21.80;99.90;;;;;;5032916;28;20637;-43
2022/07/21 01:37:20;;;;;;;9.85;7.13;;;21.70;99.90;;;;;;5033013;28;20543;-42
2022/07/21 01:42:32;;;;;;;9.50;6.70;;;21.70;99.90;;;;;;5032967;28;20171;-43
2022/07/21 01:44:57;;;;;;;7.47;5.90;;;21.70;99.90;;;;;;5032979;28;20215;-43
2022/07/21 01:47:23;;;;;;;7.22;6.43;;;21.70;99.90;;;;;;5032680;28;20168;-44
2022/07/21 01:49:49;;;;;;;10.23;6.50;;;21.70;99.90;;;;;;5032793;28;20535;-43
2022/07/21 01:52:15;;;;;;;7.68;6.05;;;21.80;99.90;;;;;;5032179;28;20171;-43
2022/07/21 01:54:41;;;;;;;14.65;6.97;;;21.70;99.90;;;;;;5032546;28;20217;-43
2022/07/21 01:57:07;;;;;;;10.95;7.82;;;21.70;99.90;;;;;;5032517;28;20173;-43
2022/07/21 01:59:33;;;;;;;10.75;8.05;;;21.70;99.90;;;;;;5032642;28;20214;-43
2022/07/21 02:01:58;;;;;;;13.15;7.85;;;21.70;99.90;;;;;;5032758;28;20187;-43
2022/07/21 02:04:24;;;;;;;18.25;9.48;;;21.60;99.90;;;;;;5032237;28;20281;-42
2022/07/21 02:06:50;;;;;;;15.45;8.73;;;21.60;99.90;;;;;;5030970;28;20797;-43
2022/07/21 02:09:15;;;;;;;13.00;8.23;;;21.60;99.90;;;;;;5032277;28;20170;-43
2022/07/21 02:11:41;;;;;;;13.80;8.40;;;21.60;99.90;;;;;;5032288;28;20176;-43
2022/07/21 02:14:07;;;;;;;10.80;8.05;;;21.60;99.90;;;;;;5032208;28;20578;-43
2022/07/21 02:16:33;;;;;;;15.95;9.23;;;21.60;99.90;;;;;;5032215;28;20693;-48
2022/07/21 02:18:59;;;;;;;12.80;7.93;;;21.80;99.90;;;;;;5032482;28;20203;-46
2022/07/21 02:21:25;;;;;;;10.45;8.30;;;21.70;99.90;;;;;;5032108;28;20210;-45
2022/07/21 02:23:51;;;;;;;13.32;9.05;;;21.60;99.90;;;;;;5032236;28;20210;-44
2022/07/21 02:26:17;;;;;;;15.75;8.85;;;21.60;99.90;;;;;;5032368;28;20617;-43
2022/07/21 02:28:43;;;;;;;13.48;8.63;;;21.40;99.90;;;;;;5032121;28;20206;-44
2022/07/21 02:31:09;;;;;;;12.15;8.82;;;21.30;99.90;;;;;;5032193;28;20262;-46
2022/07/21 02:33:35;;;;;;;17.52;9.48;;;21.20;99.90;;;;;;5032025;28;20176;-43
2022/07/21 02:36:00;;;;;;;12.15;8.77;;;21.20;99.90;;;;;;5031913;28;20624;-43
2022/07/21 02:38:26;;;;;;;14.23;9.55;;;21.30;99.90;;;;;;5032195;28;20171;-43
2022/07/21 02:40:52;;;;;;;15.50;9.55;;;21.40;99.90;;;;;;5031963;28;20175;-44
2022/07/21 02:43:17;;;;;;;13.88;9.80;;;21.20;99.90;;;;;;5031838;28;20520;-43
2022/07/21 02:45:44;;;;;;;18.85;11.13;;;21.30;99.90;;;;;;5031773;28;20215;-44
2022/07/21 02:48:12;;;;;;;16.27;11.15;;;21.30;99.90;;;;;;5031904;28;20167;-44
2022/07/21 02:50:42;;;;;;;20.27;10.60;;;21.40;99.90;;;;;;5031876;28;20167;-43
2022/07/21 02:53:12;;;;;;;15.60;10.38;;;21.50;99.90;;;;;;5031999;28;20183;-43
2022/07/21 02:55:39;;;;;;;13.07;10.18;;;21.40;99.90;;;;;;5031654;28;20254;-43
2022/07/21 02:58:13;;;;;;;13.63;9.82;;;21.40;99.90;;;;;;5031701;28;20185;-43
2022/07/21 03:00:42;;;;;;;13.32;9.63;;;21.40;99.90;;;;;;5031940;28;20198;-43
2022/07/21 03:03:09;;;;;;;13.93;9.23;;;21.40;99.90;;;;;;5031853;28;20175;-43
2022/07/21 03:05:36;;;;;;;12.25;9.25;;;21.40;99.90;;;;;;5033725;28;20257;-44
2022/07/21 03:08:02;;;;;;;14.48;9.45;;;21.40;99.90;;;;;;5035526;28;20223;-44
2022/07/21 03:10:28;;;;;;;15.90;9.57;;;21.40;99.90;;;;;;5035987;28;20186;-43
2022/07/21 03:12:53;;;;;;;12.63;8.55;;;21.50;99.90;;;;;;5035836;28;20202;-43
2022/07/21 03:15:19;;;;;;;11.00;9.20;;;21.30;99.90;;;;;;5035507;28;20267;-43
2022/07/21 03:17:45;;;;;;;13.27;8.80;;;21.40;99.90;;;;;;5035473;28;20204;-44
2022/07/21 03:20:11;;;;;;;14.50;9.65;;;21.50;99.90;;;;;;5035440;28;20204;-43
2022/07/21 03:22:37;;;;;;;15.88;9.27;;;21.50;99.90;;;;;;5035381;28;20679;-44
2022/07/21 03:25:03;;;;;;;15.27;9.90;;;21.60;99.90;;;;;;5035326;28;20242;-44
2022/07/21 03:27:29;;;;;;;17.80;9.95;;;21.50;99.90;;;;;;5035575;28;20537;-43
2022/07/21 03:29:54;;;;;;;16.17;9.13;;;21.50;99.90;;;;;;5035240;28;20173;-52
2022/07/21 03:32:20;;;;;;;16.35;10.07;;;21.30;99.90;;;;;;5035253;28;20167;-52
2022/07/21 03:34:45;;;;;;;14.98;10.15;;;21.40;99.90;;;;;;5035268;28;20175;-53
2022/07/21 03:37:12;;;;;;;13.93;10.05;;;21.30;99.90;;;;;;5035172;28;20163;-52
2022/07/21 03:39:37;;;;;;;15.75;9.95;;;21.30;99.90;;;;;;5035159;28;20225;-52
2022/07/21 03:42:04;;;;;;;12.27;9.13;;;21.20;99.90;;;;;;5035038;28;20167;-51
2022/07/21 03:44:29;;;;;;;14.35;9.55;;;21.20;99.90;;;;;;5035201;28;20191;-49
2022/07/21 03:46:58;;;;;;;12.25;8.38;;;19.90;99.90;;;;;;5035523;28;20171;-47
2022/07/21 03:49:24;;;;;;;12.85;8.77;;;21.20;99.90;;;;;;5035161;28;20172;-49
2022/07/21 03:51:50;;;;;;;14.55;9.38;;;21.20;99.90;;;;;;5034859;28;20595;-44
2022/07/21 03:54:15;;;;;;;12.52;9.07;;;21.30;99.90;;;;;;5035077;28;20225;-47
2022/07/21 03:56:41;;;;;;;12.77;9.23;;;21.30;99.90;;;;;;5034629;28;20637;-50
2022/07/21 03:59:07;;;;;;;11.48;9.10;;;21.30;99.90;;;;;;5034787;28;20166;-50
2022/07/21 04:01:32;;;;;;;14.55;8.25;;;21.30;99.90;;;;;;5034677;28;20254;-49
2022/07/21 04:03:58;;;;;;;14.38;9.48;;;21.40;99.90;;;;;;5034847;28;20248;-45
2022/07/21 04:06:23;;;;;;;16.33;9.75;;;21.20;99.90;;;;;;5034574;28;20295;-45
2022/07/21 04:08:49;;;;;;;15.18;9.23;;;21.10;99.90;;;;;;5034736;28;20271;-47
2022/07/21 04:11:14;;;;;;;11.88;8.55;;;21.20;99.90;;;;;;5034541;28;20701;-50
2022/07/21 04:13:40;;;;;;;12.10;8.43;;;21.10;99.90;;;;;;5033183;28;20171;-48
2022/07/21 04:16:06;;;;;;;11.38;7.95;;;21.00;99.90;;;;;;5034185;28;20206;-45
2022/07/21 04:18:32;;;;;;;10.55;7.45;;;20.80;99.90;;;;;;5034371;28;20171;-43
2022/07/21 04:20:57;;;;;;;11.90;7.95;;;20.90;99.90;;;;;;5035130;28;20196;-48
2022/07/21 04:23:23;;;;;;;8.48;7.25;;;21.00;99.90;;;;;;5034359;28;20585;-48
2022/07/21 04:25:48;;;;;;;11.82;7.10;;;21.00;99.90;;;;;;5034203;28;20214;-43
2022/07/21 04:28:14;;;;;;;7.65;6.78;;;21.00;99.90;;;;;;5034843;28;20254;-43
2022/07/21 04:30:40;;;;;;;9.70;7.40;;;20.90;99.90;;;;;;5034607;28;20167;-48
2022/07/21 04:33:06;;;;;;;10.45;7.45;;;20.90;99.90;;;;;;5034363;28;20199;-49
2022/07/21 04:35:32;;;;;;;8.02;7.22;;;20.80;99.90;;;;;;5034061;28;20225;-46
2022/07/21 04:37:57;;;;;;;10.02;7.25;;;21.00;99.90;;;;;;5034924;28;20195;-52
2022/07/21 04:40:23;;;;;;;8.63;6.68;;;20.90;99.90;;;;;;5034049;28;20175;-43
2022/07/21 04:42:49;;;;;;;10.00;7.45;;;20.90;99.90;;;;;;5034118;28;20171;-43
2022/07/21 04:45:15;;;;;;;9.10;7.55;;;20.90;99.90;;;;;;5033747;28;20730;-44
2022/07/21 04:47:45;;;;;;;12.57;7.93;;;21.00;99.90;;;;;;5034159;28;20191;-44
2022/07/21 04:50:11;;;;;;;13.88;8.80;;;21.10;99.90;;;;;;5033773;28;20637;-43
2022/07/21 04:52:36;;;;;;;19.80;9.40;;;21.10;99.90;;;;;;5033952;28;20217;-44
2022/07/21 04:55:03;;;;;;;22.10;10.85;;;21.20;99.90;;;;;;5033728;28;20163;-44
2022/07/21 04:57:28;;;;;;;18.90;10.70;;;21.40;99.90;;;;;;5033947;28;20175;-45
2022/07/21 04:59:54;;;;;;;18.25;10.68;;;21.40;99.90;;;;;;5033557;28;20163;-48
2022/07/21 05:02:19;;;;;;;16.15;9.15;;;21.50;99.90;;;;;;5033689;28;20276;-48
2022/07/21 05:04:45;;;;;;;17.55;10.23;;;21.40;99.90;;;;;;5032955;28;20203;-49
2022/07/21 05:07:11;;;;;;;16.30;9.00;;;21.80;99.90;;;;;;5033266;28;20219;-49
2022/07/21 05:09:36;;;;;;;16.42;9.50;;;21.40;99.90;;;;;;5033493;28;20174;-49
2022/07/21 05:12:03;;;;;;;14.05;9.77;;;21.50;99.90;;;;;;5033562;28;20183;-48
2022/07/21 05:14:28;;;;;;;15.13;10.18;;;21.60;99.90;;;;;;5033774;28;20175;-48
2022/07/21 05:16:54;;;;;;;17.27;10.02;;;21.60;99.90;;;;;;5033506;28;20648;-49
2022/07/21 05:19:19;;;;;;;14.43;9.82;;;21.40;99.90;;;;;;5033174;28;20196;-44
2022/07/21 05:21:46;;;;;;;11.65;8.40;;;21.30;99.90;;;;;;5033096;28;20194;-46
2022/07/21 05:24:12;;;;;;;12.20;8.68;;;21.40;99.90;;;;;;5032913;28;20206;-45
2022/07/21 05:26:38;;;;;;;15.45;10.32;;;21.50;99.90;;;;;;5032976;28;20184;-44
2022/07/21 05:29:03;;;;;;;17.67;11.05;;;21.60;99.90;;;;;;5032336;28;20164;-45
2022/07/21 05:31:29;;;;;;;13.57;9.82;;;21.60;99.90;;;;;;5032901;28;20167;-44
2022/07/21 05:33:55;;;;;;;18.52;10.20;;;21.70;99.90;;;;;;5033274;28;20178;-52
2022/07/21 05:36:20;;;;;;;14.60;9.27;;;21.60;99.90;;;;;;5032891;28;20195;-43
2022/07/21 05:38:46;;;;;;;13.95;8.65;;;21.30;99.90;;;;;;5032755;28;20595;-44
2022/07/21 05:41:12;;;;;;;14.48;8.23;;;21.50;99.90;;;;;;5033050;28;20518;-44
2022/07/21 05:43:38;;;;;;;11.75;9.15;;;21.30;99.90;;;;;;5032681;28;20221;-44
2022/07/21 05:46:03;;;;;;;11.98;8.90;;;21.30;99.90;;;;;;5032675;28;20175;-44
2022/07/21 05:48:29;;;;;;;10.73;8.65;;;21.20;99.90;;;;;;5032836;28;20226;-43
2022/07/21 05:50:54;;;;;;;14.20;8.65;;;21.10;99.90;;;;;;5032837;28;20163;-43
2022/07/21 05:53:20;;;;;;;9.68;8.18;;;21.20;99.90;;;;;;5032591;28;20250;-43
2022/07/21 05:55:46;;;;;;;13.27;8.75;;;21.10;99.90;;;;;;5032717;28;20182;-44
2022/07/21 05:58:12;;;;;;;11.00;8.43;;;21.10;99.90;;;;;;5032368;28;20625;-44
2022/07/21 06:00:37;;;;;;;10.52;8.13;;;21.00;99.90;;;;;;5032681;28;20181;-43
2022/07/21 06:03:03;;;;;;;17.63;9.23;;;21.00;99.90;;;;;;5032647;28;20182;-44
2022/07/21 06:05:29;;;;;;;12.57;8.68;;;20.90;99.90;;;;;;5032621;28;20699;-44
2022/07/21 06:07:54;;;;;;;12.48;8.57;;;21.00;99.90;;;;;;5032406;28;20246;-44
2022/07/21 06:10:20;;;;;;;8.95;8.10;;;20.90;99.90;;;;;;5032259;28;20190;-44
2022/07/21 06:12:45;;;;;;;9.57;7.80;;;21.00;99.90;;;;;;5032260;28;20193;-44
2022/07/21 06:15:12;;;;;;;10.95;7.40;;;21.30;99.90;;;;;;5032195;28;20702;-44
2022/07/21 06:17:45;;;;;;;11.90;8.50;;;21.40;99.90;;;;;;5032008;28;20217;-44
2022/07/21 06:20:11;;;;;;;12.60;8.88;;;21.60;99.90;;;;;;5032053;28;20244;-44
2022/07/21 06:22:37;;;;;;;11.65;8.60;;;21.90;99.90;;;;;;5032057;28;20170;-44
2022/07/21 06:25:04;;;;;;;10.88;7.75;;;22.00;99.90;;;;;;5031946;28;20541;-44
2022/07/21 06:27:31;;;;;;;8.90;5.93;;;21.90;99.90;;;;;;5031914;28;20637;-44
2022/07/21 06:29:58;;;;;;;9.50;6.40;;;21.80;99.90;;;;;;5031037;28;20171;-45
2022/07/21 06:32:24;;;;;;;10.60;6.93;;;22.10;99.90;;;;;;5032417;28;20186;-44
2022/07/21 06:34:50;;;;;;;7.00;6.30;;;22.20;99.90;;;;;;5031871;28;20167;-44
2022/07/21 06:37:16;;;;;;;9.75;7.35;;;22.30;99.90;;;;;;5031914;28;20167;-43
2022/07/21 06:39:42;;;;;;;10.07;7.28;;;22.20;99.90;;;;;;5031896;28;20531;-44
2022/07/21 06:42:08;;;;;;;9.35;7.70;;;22.00;99.90;;;;;;5031818;28;20695;-44
2022/07/21 06:44:34;;;;;;;10.38;7.28;;;22.00;99.90;;;;;;5031688;28;20195;-52
2022/07/21 06:47:04;;;;;;;10.55;7.50;;;22.10;99.90;;;;;;5032427;28;20174;-52
2022/07/21 06:49:33;;;;;;;7.57;6.85;;;22.00;99.90;;;;;;5030199;28;20217;-50
2022/07/21 06:51:58;;;;;;;8.55;6.93;;;22.10;99.90;;;;;;5032153;28;20547;-46
2022/07/21 06:54:24;;;;;;;12.65;7.53;;;22.20;99.90;;;;;;5032368;28;20163;-48
2022/07/21 06:56:50;;;;;;;8.15;6.30;;;22.30;99.90;;;;;;5032192;28;20167;-49
2022/07/21 06:59:15;;;;;;;9.43;6.78;;;22.30;99.90;;;;;;5031995;28;20164;-44
2022/07/21 07:01:41;;;;;;;7.88;6.15;;;22.30;99.90;;;;;;5031977;28;20171;-46
2022/07/21 07:04:07;;;;;;;7.07;6.18;;;22.50;99.90;;;;;;5031733;28;20258;-49
2022/07/21 07:06:33;;;;;;;8.55;7.28;;;22.30;99.90;;;;;;5031740;28;20219;-46
2022/07/21 07:08:58;;;;;;;8.32;6.38;;;22.40;99.90;;;;;;5032268;28;20168;-47
2022/07/21 07:11:24;;;;;;;9.15;6.82;;;22.60;99.90;;;;;;5032344;28;20544;-45
2022/07/21 07:13:50;;;;;;;8.38;6.07;;;22.60;99.90;;;;;;5032127;28;20625;-46
2022/07/21 07:16:15;;;;;;;9.75;5.90;;;22.60;99.90;;;;;;5031527;28;20174;-49
2022/07/21 07:18:41;;;;;;;10.20;5.45;;;22.70;99.90;;;;;;5031316;28;20164;-44
2022/07/21 07:21:06;;;;;;;7.97;6.05;;;22.60;99.90;;;;;;5032195;28;20573;-45
2022/07/21 07:23:32;;;;;;;8.93;6.28;;;22.50;99.90;;;;;;5032095;28;20167;-46
2022/07/21 07:25:58;;;;;;;11.30;6.03;;;22.20;99.90;;;;;;5031959;28;20653;-47
2022/07/21 07:28:23;;;;;;;10.15;6.22;;;22.30;99.90;;;;;;5031873;28;20187;-48
2022/07/21 07:30:49;;;;;;;10.02;5.82;;;22.40;99.90;;;;;;5031663;28;20538;-46
2022/07/21 07:33:14;;;;;;;11.25;5.95;;;22.50;99.90;;;;;;5031192;28;20192;-50
2022/07/21 07:35:40;;;;;;;9.07;5.93;;;22.70;99.90;;;;;;5031041;28;20156;-46
2022/07/21 07:38:06;;;;;;;9.55;5.78;;;23.30;99.90;;;;;;5031416;28;20195;-48
2022/07/21 07:40:31;;;;;;;9.45;5.70;;;23.40;99.90;;;;;;5031469;28;20238;-44
2022/07/21 07:42:57;;;;;;;8.25;5.72;;;23.60;99.90;;;;;;5030826;28;20178;-45
2022/07/21 07:45:23;;;;;;;10.15;6.07;;;23.70;99.90;;;;;;5029947;28;20210;-43
2022/07/21 07:47:49;;;;;;;9.32;5.32;;;23.70;99.90;;;;;;5031245;28;20706;-46
2022/07/21 07:50:15;;;;;;;7.53;5.55;;;23.70;99.90;;;;;;5031307;28;20225;-44
2022/07/21 07:52:42;;;;;;;10.15;5.53;;;23.80;99.90;;;;;;5034852;28;20168;-44
2022/07/21 07:55:10;;;;;;;7.65;5.90;;;23.60;99.90;;;;;;5034800;28;20218;-43
2022/07/21 07:57:39;;;;;;;9.05;6.10;;;23.50;99.90;;;;;;5037181;28;20232;-47
2022/07/21 08:00:09;;;;;;;10.25;5.20;;;23.60;99.90;;;;;;5045744;28;20752;-47
2022/07/21 08:02:35;;;;;;;8.60;5.63;;;23.70;99.90;;;;;;5037990;28;20183;-47
2022/07/21 08:05:00;;;;;;;8.63;5.78;;;23.70;99.90;;;;;;5034685;28;20206;-48
2022/07/21 08:07:26;;;;;;;7.93;6.03;;;23.70;99.90;;;;;;5034717;28;20242;-47
2022/07/21 08:09:52;;;;;;;7.72;5.80;;;23.60;99.90;;;;;;5034406;28;20171;-49
2022/07/21 08:12:17;;;;;;;7.80;5.60;;;23.90;99.90;;;;;;5034408;28;20163;-52
2022/07/21 08:14:43;;;;;;;6.60;5.90;;;23.80;99.90;;;;;;5034093;28;20163;-52
2022/07/21 08:17:09;;;;;;;8.25;5.38;;;23.70;99.90;;;;;;5034255;28;20203;-47
2022/07/21 08:19:35;;;;;;;8.57;5.60;;;23.70;99.90;;;;;;5034464;28;20395;-45
2022/07/21 08:22:01;;;;;;;6.28;5.15;;;23.90;99.90;;;;;;5034271;28;20159;-51
2022/07/21 08:24:27;;;;;;;6.32;5.53;;;23.70;99.90;;;;;;5034913;28;20570;-47
2022/07/21 08:26:52;;;;;;;5.95;4.97;;;23.50;99.90;;;;;;5034220;28;20159;-51
2022/07/21 08:29:18;;;;;;;8.98;5.72;;;23.30;99.90;;;;;;5034392;28;20179;-55
2022/07/21 08:31:44;;;;;;;10.95;5.65;;;23.40;99.90;;;;;;5033738;28;20667;-55
2022/07/21 08:34:09;;;;;;;7.80;5.65;;;23.50;99.90;;;;;;5034073;28;20166;-55
2022/07/21 08:36:35;;;;;;;7.38;5.68;;;24.00;99.90;;;;;;5033650;28;20174;-54
2022/07/21 08:39:00;;;;;;;7.93;5.43;;;24.50;99.90;;;;;;5033891;28;20174;-47
2022/07/21 08:41:26;;;;;;;6.25;5.53;;;24.70;99.90;;;;;;5034415;28;20170;-45
2022/07/21 08:43:52;;;;;;;8.52;5.43;;;24.90;99.90;;;;;;5033749;28;20249;-44
2022/07/21 08:46:21;;;;;;;6.07;5.13;;;25.20;99.90;;;;;;5033850;28;20644;-44
2022/07/21 08:48:48;;;;;;;8.63;5.10;;;24.80;99.90;;;;;;5033713;28;20365;-45
2022/07/21 08:51:15;;;;;;;7.28;5.13;;;24.30;99.90;;;;;;5033706;28;20167;-45
2022/07/21 08:53:44;;;;;;;6.68;4.72;;;24.80;99.90;;;;;;5033695;28;20170;-44
2022/07/21 08:56:10;;;;;;;5.03;3.85;;;24.80;99.90;;;;;;5033928;28;20183;-45
2022/07/21 08:58:36;;;;;;;5.30;4.07;;;24.80;99.90;;;;;;5033882;28;20250;-44
2022/07/21 09:01:02;;;;;;;5.57;5.07;;;24.90;99.90;;;;;;5033770;28;20183;-44
2022/07/21 09:03:29;;;;;;;5.25;4.28;;;25.20;99.90;;;;;;5032506;28;20577;-44
2022/07/21 09:06:15;;;;;;;7.15;4.38;;;24.90;99.90;;;;;;5033779;28;20289;-45
2022/07/21 09:08:48;;;;;;;5.55;4.53;;;24.80;99.90;;;;;;5033600;28;20289;-45
2022/07/21 09:11:19;;;;;;;8.80;4.57;;;24.60;99.90;;;;;;5033308;28;20167;-44
2022/07/21 09:13:51;;;;;;;6.65;4.15;;;24.70;99.90;;;;;;5033295;28;20457;-44
2022/07/21 09:16:35;;;;;;;6.07;4.53;;;24.80;99.90;;;;;;5033373;28;20178;-47
2022/07/21 09:19:01;;;;;;;8.88;4.90;;;24.70;99.90;;;;;;5033374;28;20545;-44
2022/07/21 09:21:28;;;;;;;7.82;4.90;;;24.70;99.90;;;;;;5033740;28;20171;-45
2022/07/21 09:24:18;;;;;;;6.22;4.65;;;24.50;99.90;;;;;;5033576;28;20209;-44
2022/07/21 09:26:56;;;;;;;5.53;4.63;;;24.10;99.90;;;;;;5032663;28;20170;-45
2022/07/21 09:29:22;;;;;;;6.55;4.80;;;24.10;99.90;;;;;;5032691;28;20174;-47
2022/07/21 09:31:47;;;;;;;7.22;4.97;;;24.10;99.90;;;;;;5032897;28;20220;-43
2022/07/21 09:34:14;;;;;;;8.93;5.95;;;24.20;99.90;;;;;;5032941;28;20621;-42
2022/07/21 09:36:54;;;;;;;5.82;4.70;;;24.30;99.90;;;;;;5033137;28;20175;-43
2022/07/21 09:39:47;;;;;;;6.32;4.53;;;24.50;99.90;;;;;;5032780;28;20193;-50
2022/07/21 09:42:29;;;;;;;6.75;4.78;;;24.50;99.90;;;;;;5032974;28;20167;-43
2022/07/21 09:44:57;;;;;;;5.80;4.57;;;24.80;99.90;;;;;;5032960;28;20293;-42
2022/07/21 09:47:25;;;;;;;6.68;4.47;;;24.90;99.90;;;;;;5032983;28;20224;-43
2022/07/21 09:49:52;;;;;;;5.50;4.20;;;24.70;99.90;;;;;;5032573;28;20652;-43
2022/07/21 09:52:23;;;;;;;7.78;4.10;;;24.70;99.90;;;;;;5032594;28;20163;-43
2022/07/21 09:54:51;;;;;;;6.50;4.60;;;25.00;99.90;;;;;;5032418;28;20170;-43
2022/07/21 09:57:17;;;;;;;6.63;4.47;;;24.90;99.90;;;;;;5032465;28;20261;-49
2022/07/21 09:59:47;;;;;;;7.47;4.38;;;24.50;99.90;;;;;;5032801;28;20578;-47
2022/07/21 10:02:32;;;;;;;8.48;4.57;;;24.00;99.90;;;;;;5032378;28;20570;-45
2022/07/21 10:04:58;;;;;;;7.25;4.60;;;23.80;99.90;;;;;;5032417;28;20211;-42
2022/07/21 10:07:25;;;;;;;7.07;5.20;;;23.70;99.90;;;;;;5032205;28;20688;-53
2022/07/21 10:09:51;;;;;;;6.13;4.53;;;23.50;99.90;;;;;;5032093;28;20167;-55
2022/07/21 10:12:17;;;;;;;6.90;4.20;;;23.60;99.90;;;;;;5032258;28;20644;-49
2022/07/21 10:14:44;;;;;;;5.00;4.07;;;23.60;99.90;;;;;;5031991;28;20187;-51
2022/07/21 10:17:09;;;;;;;5.70;4.30;;;23.70;99.90;;;;;;5032455;28;20175;-46
2022/07/21 10:19:44;;;;;;;7.25;4.55;;;23.50;99.90;;;;;;5032117;28;20236;-50
2022/07/21 10:22:23;;;;;;;6.35;4.65;;;23.50;99.90;;;;;;5032081;28;20654;-49
2022/07/21 10:24:49;;;;;;;6.60;5.32;;;23.60;99.90;;;;;;5031979;28;20624;-53
2022/07/21 10:27:14;;;;;;;7.32;5.47;;;23.60;99.90;;;;;;5031727;28;20221;-45
2022/07/21 10:29:49;;;;;;;10.60;6.00;;;23.80;99.90;;;;;;5032141;28;20207;-49
2022/07/21 10:32:17;;;;;;;9.95;6.65;;;24.00;99.90;;;;;;5032160;28;20162;-48
2022/07/21 10:34:43;;;;;;;6.97;5.68;;;24.10;99.90;;;;;;5031973;28;20186;-57
2022/07/21 10:37:10;;;;;;;7.57;6.45;;;23.90;99.90;;;;;;5032096;28;20640;-49
2022/07/21 10:39:38;;;;;;;12.32;6.30;;;23.80;99.90;;;;;;5031709;28;20181;-57
2022/07/21 10:42:15;;;;;;;10.50;6.93;;;23.60;99.90;;;;;;5031752;28;20652;-57
2022/07/21 10:44:45;;;;;;;9.10;6.90;;;23.50;99.90;;;;;;5031725;28;20257;-56
2022/07/21 10:47:20;;;;;;;7.57;6.88;;;23.40;99.90;;;;;;5032032;28;20171;-57
2022/07/21 10:49:48;;;;;;;8.60;7.60;;;23.20;99.90;;;;;;5031040;28;20253;-56
2022/07/21 10:52:35;;;;;;;8.88;7.65;;;23.20;99.90;;;;;;5031538;28;20168;-57
2022/07/21 10:55:31;;;;;;;7.55;6.55;;;23.10;99.90;;;;;;5031796;28;20175;-56
2022/07/21 10:58:16;;;;;;;9.25;6.85;;;22.80;99.90;;;;;;5031518;28;20210;-45
2022/07/21 11:00:54;;;;;;;10.65;7.60;;;22.70;99.90;;;;;;5031415;28;20316;-52
2022/07/21 11:03:33;;;;;;;8.52;7.65;;;22.60;99.90;;;;;;5030761;28;20528;-56
2022/07/21 11:06:24;;;;;;;11.98;8.80;;;22.50;99.90;;;;;;5031049;28;20537;-57
2022/07/21 11:09:06;;;;;;;10.32;8.25;;;22.50;99.90;;;;;;5031362;28;20171;-51
2022/07/21 11:11:58;;;;;;;10.98;8.32;;;22.40;99.90;;;;;;5031388;28;20576;-56
2022/07/21 11:14:46;;;;;;;13.32;8.07;;;22.30;99.90;;;;;;5031506;28;20163;-57
2022/07/21 11:17:29;;;;;;;12.45;8.52;;;22.10;99.90;;;;;;5031335;28;20233;-57
2022/07/21 11:19:55;;;;;;;12.30;9.88;;;21.80;99.90;;;;;;5031560;28;20629;-56
2022/07/21 11:22:25;;;;;;;12.23;9.00;;;21.80;99.90;;;;;;5031188;28;20178;-57
2022/07/21 11:25:04;;;;;;;11.75;8.82;;;21.80;99.90;;;;;;5031445;28;20195;-55
2022/07/21 11:27:31;;;;;;;12.23;8.45;;;21.70;99.90;;;;;;5035231;28;20514;-56
2022/07/21 11:29:59;;;;;;;11.40;8.38;;;21.50;99.90;;;;;;5035019;28;20309;-56
2022/07/21 11:32:26;;;;;;;11.80;8.18;;;21.60;99.90;;;;;;5033725;28;20636;-56
2022/07/21 11:35:05;;;;;;;8.80;7.63;;;21.60;99.90;;;;;;5035374;28;20163;-57
2022/07/21 11:37:38;;;;;;;9.80;8.30;;;21.40;99.90;;;;;;5034696;28;20202;-56
2022/07/21 11:40:11;;;;;;;9.80;6.32;;;21.30;99.90;;;;;;5034912;28;20497;-57
2022/07/21 11:42:39;;;;;;;8.13;7.32;;;20.90;99.90;;;;;;5034777;28;20170;-56
2022/07/21 11:45:06;;;;;;;10.95;7.57;;;20.60;99.90;;;;;;5034871;28;20217;-57
2022/07/21 11:47:32;;;;;;;8.20;7.40;;;20.60;99.90;;;;;;5034389;28;20175;-57
2022/07/21 11:50:10;;;;;;;9.35;7.90;;;20.40;99.90;;;;;;5034835;28;20218;-49
2022/07/21 11:52:42;;;;;;;9.27;8.05;;;20.50;99.90;;;;;;5035122;28;20170;-54
2022/07/21 11:55:12;;;;;;;7.97;7.18;;;20.60;99.90;;;;;;5034870;28;20528;-55
2022/07/21 11:57:43;;;;;;;7.45;6.60;;;20.50;99.90;;;;;;5035331;28;20163;-55
2022/07/21 12:00:09;;;;;;;7.47;6.78;;;20.60;99.90;;;;;;5034430;28;20206;-51
2022/07/21 12:02:36;;;;;;;7.18;6.50;;;20.50;99.90;;;;;;5034649;28;20536;-53
2022/07/21 12:05:10;;;;;;;9.35;7.28;;;20.50;99.90;;;;;;5034900;28;20272;-56
2022/07/21 12:07:53;;;;;;;7.82;7.10;;;20.60;99.90;;;;;;5034661;28;20245;-56
2022/07/21 12:10:28;;;;;;;8.85;7.20;;;20.60;99.90;;;;;;5034710;28;20163;-56
2022/07/21 12:13:11;;;;;;;8.38;7.03;;;20.70;99.90;;;;;;5035097;28;20167;-51
2022/07/21 12:15:41;;;;;;;7.15;6.32;;;20.60;99.90;;;;;;5034246;28;20163;-51
2022/07/21 12:18:18;;;;;;;7.35;6.65;;;20.70;99.90;;;;;;5034871;28;20156;-47
2022/07/21 12:20:44;;;;;;;8.35;7.43;;;20.70;99.90;;;;;;5034623;28;20240;-44
2022/07/21 12:23:29;;;;;;;8.32;6.72;;;20.80;99.90;;;;;;5034988;28;20624;-44
2022/07/21 12:26:00;;;;;;;8.05;6.50;;;20.80;99.90;;;;;;5034878;28;20199;-43
2022/07/21 12:28:47;;;;;;;8.00;6.95;;;20.70;99.90;;;;;;5035103;28;20344;-48
2022/07/21 12:31:20;;;;;;;7.55;6.82;;;20.80;99.90;;;;;;5034249;28;20702;-44
2022/07/21 12:33:47;;;;;;;7.47;6.80;;;20.70;99.90;;;;;;5033664;28;20164;-48
2022/07/21 12:36:13;;;;;;;7.70;7.00;;;20.70;99.90;;;;;;5033701;28;20675;-45
2022/07/21 12:38:41;;;;;;;10.55;7.90;;;20.70;99.90;;;;;;5034156;28;20168;-42
2022/07/21 12:41:08;;;;;;;7.88;7.18;;;20.90;99.90;;;;;;5034483;28;20203;-42
2022/07/21 12:43:34;;;;;;;8.68;7.78;;;20.70;99.90;;;;;;5033817;28;20171;-42
2022/07/21 12:46:03;;;;;;;8.13;7.43;;;20.80;99.90;;;;;;5033035;28;20733;-42
2022/07/21 12:48:31;;;;;;;13.35;8.40;;;20.90;99.90;;;;;;5032792;28;20621;-42